• Join FlightAware (Why Join?)
  • Login
  • US Flag 
04:08AM EST


 

Airport Tracker/Info


-or-


 

Live Flight TrackerFlight Track Log ✈ PDT4314 ✈ 26-Aug-2013 ✈ KBGM - KPHL

Flight Track Log - Related Links

Times and Time Zones

All times are in EDT time to prevent confusion due to time zone crossing. See the PDT4314 flight status page for this flight to view local times or setup timezone preferences in your user account.

Time Position Orientation Groundspeed Altitude Reporting Facility
EDT Latitude Longitude Course Direction KTS MPH feet Rate Location/Type
06:43PM 41.8346 -75.8578 180° South  Level Estimated
06:44PM 41.7812 -75.9055 214° Southwest  Level FlightAware Approximate
06:45PM 41.7192 -75.8833 160° South  Level Estimated
06:46PM 41.6558 -75.8710 172° South  Level FlightAware Approximate
06:47PM 41.5939 -75.8485 159° South  Level Estimated
06:48PM 41.5341 -75.8176 159° South  Level FlightAware Approximate
06:49PM 41.4721 -75.7955 153° Southeast  Level Estimated
06:50PM 41.4101 -75.7735 161° South  Level Estimated
06:51PM 41.3521 -75.7370 155° Southeast  Level FlightAware Approximate
06:52PM 41.2941 -75.7006 155° Southeast  Level FlightAware Approximate
06:53PM 41.2319 -75.6800 162° South  Level Estimated
06:54PM 41.1717 -75.6505 160° South  Level FlightAware Approximate
06:55PM 41.1115 -75.6211 160° South  Level FlightAware Approximate
06:56PM 41.0514 -75.5917 160° South  Level FlightAware Approximate
06:57PM 40.9888 -75.5728 159° South  Level Estimated
06:58PM 40.9263 -75.5539 163° South  Level Estimated
06:59PM 40.8663 -75.5241 159° South  Level FlightAware Approximate
07:00PM 40.8062 -75.4943 159° South  Level FlightAware Approximate
07:01PM 40.7462 -75.4646 159° South  Level FlightAware Approximate
07:02PM 40.6832 -75.4483 190° South  Level Estimated
07:02PM 40.7333 -75.4667 190° South 248 285 8,000  Level Philadelphia TRACON
07:03PM 40.6205 -75.4660 192° South  Level FlightAware Approximate
07:03PM 40.6833 -75.4667 180° South 254 292 7,700  Level Philadelphia TRACON
07:04PM 40.5578 -75.4837 192° South  Level FlightAware Approximate
07:04PM 40.6167 -75.4667 180° South 261 300 6,800  Level Philadelphia TRACON
07:05PM 40.4959 -75.4616 187° South  Level Estimated
07:05PM 40.5500 -75.4833 191° South 262 302 5,800  Level Philadelphia TRACON
07:06PM 40.4372 -75.4953 204° Southwest  Level FlightAware Approximate
07:06PM 40.4667 -75.5000 189° South 259 298 5,000  Level Philadelphia TRACON
07:07PM 40.3766 -75.4678 190° South  Level Estimated
07:07PM 40.4000 -75.5333 201° Southwest 229 264 5,000  Level Philadelphia TRACON
07:08PM 40.3333 -75.5500 191° South 233 268 5,000  Level Philadelphia TRACON
07:09PM 40.2833 -75.5000 143° Southeast 255 293 5,000  Level Philadelphia TRACON
07:10PM 40.2833 -75.4167 90° East 251 289 5,000  Level Philadelphia TRACON
07:11PM 40.2333 -75.3667 143° Southeast 245 282 5,000  Level Philadelphia TRACON
07:12PM 40.1833 -75.3167 143° Southeast 247 284 5,000 -420 Level Philadelphia TRACON
07:13PM 40.1167 -75.2833 159° South 247 284 4,200 -480 Descending Philadelphia TRACON
07:14PM 40.0500 -75.2333 150° Southeast 220 253 4,000 -120 Descending Philadelphia TRACON
07:15PM 40.0000 -75.2000 153° Southeast 219 252 4,000  Level Philadelphia TRACON
07:16PM 39.9500 -75.1667 153° Southeast 218 251 4,000  Level Philadelphia TRACON
07:17PM 39.9000 -75.1333 153° Southeast 203 234 4,000 -720 Level Philadelphia TRACON
07:19PM 39.8000 -75.1000 166° South 163 188 2,000 -840 Descending Philadelphia TRACON
07:20PM 39.8000 -75.1500 270° West 151 174 1,600 -300 Descending Philadelphia TRACON
07:21PM 39.8167 -75.2000 293° West 172 198 1,400 -600 Descending Philadelphia TRACON
07:22PM 39.8500 -75.2167 339° North 125 144 500 -900 Descending Philadelphia TRACON
07:24PM 39.8667 -75.2333 303° West  Level FlightAware Approximate
07:31PM 39.8722 -75.2409 303° West  Level Estimated